sensor_id;sensor_type;location;lat;lon;timestamp;pressure;altitude;pressure_sealevel;temperature;humidity
13050;BME280;6591;51.446;5.404;2023-02-01T00:01:05;101782.13;;;12.20;52.95
13050;BME280;6591;51.446;5.404;2023-02-01T00:03:32;101781.38;;;12.16;53.07
13050;BME280;6591;51.446;5.404;2023-02-01T00:05:59;101782.47;;;12.11;52.95
13050;BME280;6591;51.446;5.404;2023-02-01T00:08:27;101778.13;;;12.08;53.16
13050;BME280;6591;51.446;5.404;2023-02-01T00:13:31;101772.38;;;11.96;53.01
13050;BME280;6591;51.446;5.404;2023-02-01T00:16:09;101766.31;;;11.92;53.16
13050;BME280;6591;51.446;5.404;2023-02-01T00:18:37;101770.84;;;11.88;53.37
13050;BME280;6591;51.446;5.404;2023-02-01T00:21:04;101759.41;;;11.86;53.28
13050;BME280;6591;51.446;5.404;2023-02-01T00:23:34;101745.28;;;11.84;52.83
13050;BME280;6591;51.446;5.404;2023-02-01T00:26:05;101739.09;;;11.84;52.87
13050;BME280;6591;51.446;5.404;2023-02-01T00:28:33;101735.69;;;11.80;53.03
13050;BME280;6591;51.446;5.404;2023-02-01T00:31:03;101734.84;;;11.78;52.97
13050;BME280;6591;51.446;5.404;2023-02-01T00:33:31;101743.84;;;11.76;52.67
13050;BME280;6591;51.446;5.404;2023-02-01T00:36:03;101743.00;;;11.74;53.20
13050;BME280;6591;51.446;5.404;2023-02-01T00:38:33;101745.69;;;11.72;52.96
13050;BME280;6591;51.446;5.404;2023-02-01T00:41:05;101736.91;;;11.70;52.87
13050;BME280;6591;51.446;5.404;2023-02-01T00:43:34;101730.75;;;11.68;52.55
13050;BME280;6591;51.446;5.404;2023-02-01T00:46:01;101726.44;;;11.66;52.75
13050;BME280;6591;51.446;5.404;2023-02-01T00:48:29;101726.59;;;11.61;52.74
13050;BME280;6591;51.446;5.404;2023-02-01T00:51:02;101726.69;;;11.58;52.50
13050;BME280;6591;51.446;5.404;2023-02-01T00:53:30;101740.97;;;11.56;52.16
13050;BME280;6591;51.446;5.404;2023-02-01T00:55:58;101749.00;;;11.54;52.11
13050;BME280;6591;51.446;5.404;2023-02-01T00:58:26;101749.13;;;11.51;52.60
13050;BME280;6591;51.446;5.404;2023-02-01T01:03:32;101747.47;;;11.47;52.74
13050;BME280;6591;51.446;5.404;2023-02-01T01:06:09;101747.59;;;11.44;52.52
13050;BME280;6591;51.446;5.404;2023-02-01T01:08:38;101755.56;;;11.44;52.33
13050;BME280;6591;51.446;5.404;2023-02-01T01:13:39;101752.06;;;11.42;52.65
13050;BME280;6591;51.446;5.404;2023-02-01T01:16:10;101752.97;;;11.41;52.30
13050;BME280;6591;51.446;5.404;2023-02-01T01:18:39;101758.41;;;11.38;51.79
13050;BME280;6591;51.446;5.404;2023-02-01T01:21:08;101753.16;;;11.36;51.84
13050;BME280;6591;51.446;5.404;2023-02-01T01:23:36;101760.25;;;11.36;51.96
13050;BME280;6591;51.446;5.404;2023-02-01T01:26:14;101748.97;;;11.29;51.82
13050;BME280;6591;51.446;5.404;2023-02-01T01:28:45;101739.25;;;11.28;52.07
13050;BME280;6591;51.446;5.404;2023-02-01T01:31:15;101735.84;;;11.25;52.24
13050;BME280;6591;51.446;5.404;2023-02-01T01:33:56;101744.00;;;11.19;51.75
13050;BME280;6591;51.446;5.404;2023-02-01T01:36:26;101750.25;;;11.18;52.00
13050;BME280;6591;51.446;5.404;2023-02-01T01:38:53;101738.78;;;11.16;52.15
13050;BME280;6591;51.446;5.404;2023-02-01T01:41:26;101750.44;;;11.12;52.61
13050;BME280;6591;51.446;5.404;2023-02-01T01:44:53;101740.84;;;11.08;52.09
13050;BME280;6591;51.446;5.404;2023-02-01T01:46:52;101757.69;;;11.07;52.37
13050;BME280;6591;51.446;5.404;2023-02-01T01:49:26;101757.81;;;11.03;51.98
13050;BME280;6591;51.446;5.404;2023-02-01T01:52:01;101757.09;;;10.98;52.16
13050;BME280;6591;51.446;5.404;2023-02-01T01:54:37;101761.56;;;10.96;52.28
13050;BME280;6591;51.446;5.404;2023-02-01T01:57:19;101767.03;;;10.92;51.99
13050;BME280;6591;51.446;5.404;2023-02-01T01:59:58;101761.78;;;10.90;52.50
13050;BME280;6591;51.446;5.404;2023-02-01T02:03:22;101774.31;;;10.85;52.54
13050;BME280;6591;51.446;5.404;2023-02-01T02:05:52;101765.44;;;10.86;52.10
13050;BME280;6591;51.446;5.404;2023-02-01T02:08:21;101764.56;;;10.86;52.08
13050;BME280;6591;51.446;5.404;2023-02-01T02:10:51;101753.06;;;10.85;52.05
13050;BME280;6591;51.446;5.404;2023-02-01T02:13:33;101755.84;;;10.82;52.05
13050;BME280;6591;51.446;5.404;2023-02-01T02:16:35;101755.00;;;10.80;52.71
13050;BME280;6591;51.446;5.404;2023-02-01T02:19:55;101749.97;;;10.73;52.66
13050;BME280;6591;51.446;5.404;2023-02-01T02:29:38;101726.25;;;10.67;53.34
13050;BME280;6591;51.446;5.404;2023-02-01T02:32:53;101712.81;;;10.71;53.12
13050;BME280;6591;51.446;5.404;2023-02-01T02:35:46;101711.78;;;10.75;53.21
13050;BME280;6591;51.446;5.404;2023-02-01T02:38:52;101707.31;;;10.77;52.97
13050;BME280;6591;51.446;5.404;2023-02-01T02:41:52;101715.31;;;10.76;53.07
13050;BME280;6591;51.446;5.404;2023-02-01T02:44:50;101708.19;;;10.78;52.48
13050;BME280;6591;51.446;5.404;2023-02-01T02:48:16;101712.66;;;10.76;53.06
13050;BME280;6591;51.446;5.404;2023-02-01T02:51:01;101706.28;;;10.81;53.51
13050;BME280;6591;51.446;5.404;2023-02-01T02:54:15;101707.13;;;10.83;52.78
13050;BME280;6591;51.446;5.404;2023-02-01T02:57:07;101711.41;;;10.87;53.22
13050;BME280;6591;51.446;5.404;2023-02-01T03:00:00;101709.50;;;10.91;53.01
13050;BME280;6591;51.446;5.404;2023-02-01T03:02:48;101713.75;;;10.96;52.82
13050;BME280;6591;51.446;5.404;2023-02-01T03:05:39;101705.63;;;11.01;53.09
13050;BME280;6591;51.446;5.404;2023-02-01T03:08:25;101694.06;;;11.02;52.75
13050;BME280;6591;51.446;5.404;2023-02-01T03:11:05;101699.19;;;11.08;52.83
13050;BME280;6591;51.446;5.404;2023-02-01T03:14:00;101699.22;;;11.07;52.83
13050;BME280;6591;51.446;5.404;2023-02-01T03:16:50;101685.91;;;11.08;52.99
13050;BME280;6591;51.446;5.404;2023-02-01T03:19:25;101695.53;;;11.11;52.97
13050;BME280;6591;51.446;5.404;2023-02-01T03:22:04;101691.16;;;11.10;52.62
13050;BME280;6591;51.446;5.404;2023-02-01T03:25:05;101692.09;;;11.09;52.29
13050;BME280;6591;51.446;5.404;2023-02-01T03:27:48;101698.28;;;11.09;52.55
13050;BME280;6591;51.446;5.404;2023-02-01T03:30:27;101693.81;;;11.10;52.88
13050;BME280;6591;51.446;5.404;2023-02-01T03:33:00;101692.84;;;11.12;52.93
13050;BME280;6591;51.446;5.404;2023-02-01T03:38:19;101692.69;;;11.17;52.96
13050;BME280;6591;51.446;5.404;2023-02-01T03:41:33;101689.94;;;11.20;53.09
13050;BME280;6591;51.446;5.404;2023-02-01T03:46:37;101695.72;;;11.31;52.94
13050;BME280;6591;51.446;5.404;2023-02-01T03:49:16;101696.59;;;11.31;52.79
13050;BME280;6591;51.446;5.404;2023-02-01T03:51:47;101684.09;;;11.35;52.76
13050;BME280;6591;51.446;5.404;2023-02-01T03:54:18;101689.44;;;11.33;52.48
13050;BME280;6591;51.446;5.404;2023-02-01T03:56:48;101686.78;;;11.33;52.82
13050;BME280;6591;51.446;5.404;2023-02-01T03:59:15;101690.28;;;11.35;52.62
13050;BME280;6591;51.446;5.404;2023-02-01T04:01:43;101687.53;;;11.37;53.00
13050;BME280;6591;51.446;5.404;2023-02-01T04:04:10;101683.97;;;11.38;52.70
13050;BME280;6591;51.446;5.404;2023-02-01T04:06:38;101680.41;;;11.39;52.48
13050;BME280;6591;51.446;5.404;2023-02-01T04:09:05;101685.66;;;11.40;52.55
13050;BME280;6591;51.446;5.404;2023-02-01T04:11:32;101688.31;;;11.40;52.57
13050;BME280;6591;51.446;5.404;2023-02-01T04:13:59;101685.66;;;11.40;53.02
13050;BME280;6591;51.446;5.404;2023-02-01T04:16:32;101671.50;;;11.40;52.72
13050;BME280;6591;51.446;5.404;2023-02-01T04:19:00;101663.44;;;11.41;52.68
13050;BME280;6591;51.446;5.404;2023-02-01T04:21:28;101662.56;;;11.41;52.67
13050;BME280;6591;51.446;5.404;2023-02-01T04:23:55;101657.25;;;11.41;52.77
13050;BME280;6591;51.446;5.404;2023-02-01T04:26:22;101665.19;;;11.42;52.75
13050;BME280;6591;51.446;5.404;2023-02-01T04:28:49;101668.72;;;11.43;52.53
13050;BME280;6591;51.446;5.404;2023-02-01T04:31:17;101664.28;;;11.43;52.60
13050;BME280;6591;51.446;5.404;2023-02-01T04:33:44;101677.56;;;11.43;52.78
13050;BME280;6591;51.446;5.404;2023-02-01T04:36:11;101689.91;;;11.46;52.80
13050;BME280;6591;51.446;5.404;2023-02-01T04:38:39;101680.97;;;11.47;52.54
13050;BME280;6591;51.446;5.404;2023-02-01T04:41:06;101674.75;;;11.48;52.40
13050;BME280;6591;51.446;5.404;2023-02-01T04:43:32;101682.69;;;11.50;52.95
13050;BME280;6591;51.446;5.404;2023-02-01T04:46:00;101682.72;;;11.48;52.29
13050;BME280;6591;51.446;5.404;2023-02-01T04:48:26;101677.41;;;11.48;52.50
13050;BME280;6591;51.446;5.404;2023-02-01T04:50:54;101678.31;;;11.47;52.78
13050;BME280;6591;51.446;5.404;2023-02-01T04:53:21;101680.97;;;11.47;52.70
13050;BME280;6591;51.446;5.404;2023-02-01T04:55:49;101685.50;;;11.45;52.37
13050;BME280;6591;51.446;5.404;2023-02-01T04:58:16;101686.47;;;11.42;52.52
13050;BME280;6591;51.446;5.404;2023-02-01T05:00:43;101683.84;;;11.41;52.84
13050;BME280;6591;51.446;5.404;2023-02-01T05:03:11;101685.59;;;11.42;52.73
13050;BME280;6591;51.446;5.404;2023-02-01T05:05:38;101697.97;;;11.43;52.87
13050;BME280;6591;51.446;5.404;2023-02-01T05:08:06;101701.50;;;11.43;52.45
13050;BME280;6591;51.446;5.404;2023-02-01T05:10:33;101697.97;;;11.43;52.79
13050;BME280;6591;51.446;5.404;2023-02-01T05:13:00;101696.22;;;11.42;52.42
13050;BME280;6591;51.446;5.404;2023-02-01T05:15:45;101696.34;;;11.39;52.68
13050;BME280;6591;51.446;5.404;2023-02-01T05:18:13;101689.25;;;11.39;52.42
13050;BME280;6591;51.446;5.404;2023-02-01T05:20:40;101693.69;;;11.39;52.73
13050;BME280;6591;51.446;5.404;2023-02-01T05:23:07;101689.28;;;11.38;52.74
13050;BME280;6591;51.446;5.404;2023-02-01T05:25:34;101690.16;;;11.38;52.58
13050;BME280;6591;51.446;5.404;2023-02-01T05:28:01;101678.66;;;11.38;52.75
13050;BME280;6591;51.446;5.404;2023-02-01T05:30:29;101669.72;;;11.40;52.53
13050;BME280;6591;51.446;5.404;2023-02-01T05:32:56;101679.34;;;11.43;53.23
13050;BME280;6591;51.446;5.404;2023-02-01T05:35:23;101669.63;;;11.42;52.94
13050;BME280;6591;51.446;5.404;2023-02-01T05:37:50;101664.22;;;11.45;53.22
13050;BME280;6591;51.446;5.404;2023-02-01T05:40:18;101674.75;;;11.48;53.43
13050;BME280;6591;51.446;5.404;2023-02-01T05:42:45;101671.16;;;11.49;52.73
13050;BME280;6591;51.446;5.404;2023-02-01T05:45:13;101676.38;;;11.52;52.68
13050;BME280;6591;51.446;5.404;2023-02-01T05:47:39;101679.91;;;11.53;52.83
13050;BME280;6591;51.446;5.404;2023-02-01T05:50:07;101683.34;;;11.56;52.77
13050;BME280;6591;51.446;5.404;2023-02-01T05:52:34;101685.03;;;11.57;53.38
13050;BME280;6591;51.446;5.404;2023-02-01T05:55:01;101688.53;;;11.59;53.07
13050;BME280;6591;51.446;5.404;2023-02-01T05:57:28;101692.81;;;11.63;53.23
13050;BME280;6591;51.446;5.404;2023-02-01T05:59:56;101690.06;;;11.66;53.04
13050;BME280;6591;51.446;5.404;2023-02-01T06:02:26;101690.75;;;11.71;53.21
13050;BME280;6591;51.446;5.404;2023-02-01T06:04:53;101693.38;;;11.73;53.47
13050;BME280;6591;51.446;5.404;2023-02-01T06:07:20;101697.69;;;11.77;52.70
13050;BME280;6591;51.446;5.404;2023-02-01T06:09:47;101686.97;;;11.78;52.88
13050;BME280;6591;51.446;5.404;2023-02-01T06:12:14;101695.78;;;11.80;52.88
13050;BME280;6591;51.446;5.404;2023-02-01T06:14:40;101677.16;;;11.80;52.66
13050;BME280;6591;51.446;5.404;2023-02-01T06:17:09;101682.34;;;11.83;52.49
13050;BME280;6591;51.446;5.404;2023-02-01T06:19:36;101680.50;;;11.85;52.98
13050;BME280;6591;51.446;5.404;2023-02-01T06:22:03;101685.78;;;11.87;52.77
13050;BME280;6591;51.446;5.404;2023-02-01T06:24:32;101690.09;;;11.89;53.09
13050;BME280;6591;51.446;5.404;2023-02-01T06:27:00;101687.34;;;11.93;52.92
13050;BME280;6591;51.446;5.404;2023-02-01T06:29:27;101701.44;;;11.95;53.08
13050;BME280;6591;51.446;5.404;2023-02-01T06:31:54;101697.84;;;11.96;52.64
13050;BME280;6591;51.446;5.404;2023-02-01T06:34:21;101703.13;;;11.97;52.99
13050;BME280;6591;51.446;5.404;2023-02-01T06:36:50;101695.16;;;11.97;52.52
13050;BME280;6591;51.446;5.404;2023-02-01T06:39:17;101701.34;;;11.98;52.67
13050;BME280;6591;51.446;5.404;2023-02-01T06:41:48;101703.19;;;11.96;52.71
13050;BME280;6591;51.446;5.404;2023-02-01T06:44:16;101703.19;;;11.96;52.79
13050;BME280;6591;51.446;5.404;2023-02-01T06:46:43;101706.59;;;11.99;53.12
13050;BME280;6591;51.446;5.404;2023-02-01T06:49:10;101712.75;;;12.01;53.25
13050;BME280;6591;51.446;5.404;2023-02-01T06:51:37;101713.47;;;12.05;53.41
13050;BME280;6591;51.446;5.404;2023-02-01T06:54:04;101714.16;;;12.10;53.13
13050;BME280;6591;51.446;5.404;2023-02-01T06:56:31;101709.63;;;12.13;53.61
13050;BME280;6591;51.446;5.404;2023-02-01T06:58:58;101704.13;;;12.18;53.04
13050;BME280;6591;51.446;5.404;2023-02-01T07:01:27;101703.06;;;12.22;52.95
13050;BME280;6591;51.446;5.404;2023-02-01T07:03:54;101701.16;;;12.25;53.03
13050;BME280;6591;51.446;5.404;2023-02-01T07:06:21;101707.34;;;12.26;52.57
13050;BME280;6591;51.446;5.404;2023-02-01T07:08:48;101710.81;;;12.28;52.45
13050;BME280;6591;51.446;5.404;2023-02-01T07:11:18;101709.97;;;12.27;52.73
13050;BME280;6591;51.446;5.404;2023-02-01T07:13:45;101709.97;;;12.27;53.03
13050;BME280;6591;51.446;5.404;2023-02-01T07:16:16;101706.47;;;12.25;52.70
13050;BME280;6591;51.446;5.404;2023-02-01T07:18:44;101707.34;;;12.26;52.82
13050;BME280;6591;51.446;5.404;2023-02-01T07:21:12;101695.78;;;12.27;52.48
13050;BME280;6591;51.446;5.404;2023-02-01T07:23:40;101701.97;;;12.27;52.59
13050;BME280;6591;51.446;5.404;2023-02-01T07:26:10;101698.47;;;12.25;52.48
13050;BME280;6591;51.446;5.404;2023-02-01T07:28:41;101705.50;;;12.28;52.75
13050;BME280;6591;51.446;5.404;2023-02-01T07:31:13;101708.25;;;12.25;52.48
13050;BME280;6591;51.446;5.404;2023-02-01T07:33:42;101708.16;;;12.28;52.39
13050;BME280;6591;51.446;5.404;2023-02-01T07:36:13;101709.97;;;12.27;52.55
13050;BME280;6591;51.446;5.404;2023-02-01T07:38:41;101711.69;;;12.28;52.69
13050;BME280;6591;51.446;5.404;2023-02-01T07:41:09;101714.38;;;12.28;52.58
13050;BME280;6591;51.446;5.404;2023-02-01T07:43:36;101717.91;;;12.29;52.50
13050;BME280;6591;51.446;5.404;2023-02-01T07:46:04;101712.66;;;12.26;52.34
13050;BME280;6591;51.446;5.404;2023-02-01T07:48:32;101712.66;;;12.26;52.40
13050;BME280;6591;51.446;5.404;2023-02-01T07:51:10;101719.88;;;12.24;52.39
13050;BME280;6591;51.446;5.404;2023-02-01T07:53:38;101720.66;;;12.26;52.69
13050;BME280;6591;51.446;5.404;2023-02-01T07:56:18;101721.56;;;12.25;52.65
13050;BME280;6591;51.446;5.404;2023-02-01T07:58:51;101730.38;;;12.27;52.22
13050;BME280;6591;51.446;5.404;2023-02-01T08:01:22;101712.63;;;12.27;52.82
13050;BME280;6591;51.446;5.404;2023-02-01T08:04:01;101715.28;;;12.27;52.67
13050;BME280;6591;51.446;5.404;2023-02-01T08:06:33;101733.88;;;12.29;52.71
13050;BME280;6591;51.446;5.404;2023-02-01T08:09:02;101727.53;;;12.31;52.67
13050;BME280;6591;51.446;5.404;2023-02-01T08:11:30;101738.97;;;12.35;52.82
13050;BME280;6591;51.446;5.404;2023-02-01T08:13:58;101737.97;;;12.38;52.86
13050;BME280;6591;51.446;5.404;2023-02-01T08:16:25;101748.38;;;12.44;52.43
13050;BME280;6591;51.446;5.404;2023-02-01T08:18:53;101744.63;;;12.49;53.08
13050;BME280;6591;51.446;5.404;2023-02-01T08:21:27;101747.06;;;12.55;52.89
13050;BME280;6591;51.446;5.404;2023-02-01T08:24:08;101739.66;;;12.62;52.45
13050;BME280;6591;51.446;5.404;2023-02-01T08:26:35;101737.63;;;12.68;52.46
13050;BME280;6591;51.446;5.404;2023-02-01T08:29:05;101735.66;;;12.73;52.81
13050;BME280;6591;51.446;5.404;2023-02-01T08:31:33;101741.63;;;12.80;52.42
13050;BME280;6591;51.446;5.404;2023-02-01T08:34:02;101751.16;;;12.86;52.41
13050;BME280;6591;51.446;5.404;2023-02-01T08:36:32;101744.63;;;12.93;52.76
13050;BME280;6591;51.446;5.404;2023-02-01T08:39:00;101759.47;;;13.00;52.36
13050;BME280;6591;51.446;5.404;2023-02-01T08:41:29;101747.50;;;13.10;53.11
13050;BME280;6591;51.446;5.404;2023-02-01T08:43:57;101761.28;;;13.21;53.03
13050;BME280;6591;51.446;5.404;2023-02-01T08:46:25;101748.38;;;13.32;52.69
13050;BME280;6591;51.446;5.404;2023-02-01T08:48:52;101745.31;;;13.41;52.45
13050;BME280;6591;51.446;5.404;2023-02-01T08:51:21;101741.31;;;13.51;52.58
13050;BME280;6591;51.446;5.404;2023-02-01T08:53:49;101739.19;;;13.60;52.29
13050;BME280;6591;51.446;5.404;2023-02-01T08:56:18;101745.06;;;13.68;52.24
13050;BME280;6591;51.446;5.404;2023-02-01T08:58:45;101736.78;;;13.74;51.87
13050;BME280;6591;51.446;5.404;2023-02-01T09:01:16;101731.38;;;13.75;51.13
13050;BME280;6591;51.446;5.404;2023-02-01T09:03:44;101732.06;;;13.80;51.80
13050;BME280;6591;51.446;5.404;2023-02-01T09:06:14;101722.09;;;13.84;51.31
13050;BME280;6591;51.446;5.404;2023-02-01T09:08:42;101719.22;;;13.88;51.26
13050;BME280;6591;51.446;5.404;2023-02-01T09:11:16;101716.47;;;13.90;51.38
13050;BME280;6591;51.446;5.404;2023-02-01T09:13:44;101710.13;;;13.92;51.79
13050;BME280;6591;51.446;5.404;2023-02-01T09:16:12;101696.72;;;13.94;50.72
13050;BME280;6591;51.446;5.404;2023-02-01T09:18:39;101703.06;;;13.91;50.71
13050;BME280;6591;51.446;5.404;2023-02-01T09:21:22;101708.31;;;13.93;50.92
13050;BME280;6591;51.446;5.404;2023-02-01T09:23:51;101694.97;;;13.93;50.87
13050;BME280;6591;51.446;5.404;2023-02-01T09:26:18;101703.78;;;13.95;50.58
13050;BME280;6591;51.446;5.404;2023-02-01T09:28:58;101701.06;;;13.96;50.78
13050;BME280;6591;51.446;5.404;2023-02-01T09:31:25;101699.81;;;14.04;50.95
13050;BME280;6591;51.446;5.404;2023-02-01T09:33:52;101699.50;;;14.11;50.38
13050;BME280;6591;51.446;5.404;2023-02-01T09:36:19;101706.41;;;14.15;50.49
13050;BME280;6591;51.446;5.404;2023-02-01T09:38:46;101687.59;;;14.18;50.00
13050;BME280;6591;51.446;5.404;2023-02-01T09:41:51;101700.13;;;14.16;49.41
13050;BME280;6591;51.446;5.404;2023-02-01T09:47:22;101705.53;;;14.15;49.00
13050;BME280;6591;51.446;5.404;2023-02-01T09:50:15;101716.16;;;14.16;49.62
13050;BME280;6591;51.446;5.404;2023-02-01T09:55:40;101698.78;;;14.26;49.70
13050;BME280;6591;51.446;5.404;2023-02-01T10:01:18;101690.59;;;14.29;49.28
13050;BME280;6591;51.446;5.404;2023-02-01T10:03:46;101701.09;;;14.34;48.92
13050;BME280;6591;51.446;5.404;2023-02-01T10:06:39;101693.09;;;14.34;48.76
13050;BME280;6591;51.446;5.404;2023-02-01T10:21:07;101708.31;;;14.51;47.34
13050;BME280;6591;51.446;5.404;2023-02-01T10:24:09;101712.44;;;14.58;47.53
13050;BME280;6591;51.446;5.404;2023-02-01T10:27:21;101737.00;;;14.66;46.96
13050;BME280;6591;51.446;5.404;2023-02-01T10:29:56;101732.56;;;14.83;47.26
13050;BME280;6591;51.446;5.404;2023-02-01T10:32:34;101742.75;;;14.94;46.47
13050;BME280;6591;51.446;5.404;2023-02-01T10:35:15;101749.59;;;15.00;46.22
13050;BME280;6591;51.446;5.404;2023-02-01T10:37:44;101733.97;;;15.09;46.73
13050;BME280;6591;51.446;5.404;2023-02-01T10:40:25;101750.00;;;15.09;45.58
13050;BME280;6591;51.446;5.404;2023-02-01T10:42:57;101739.00;;;15.15;45.89
13050;BME280;6591;51.446;5.404;2023-02-01T10:45:30;101758.38;;;15.20;45.83
13050;BME280;6591;51.446;5.404;2023-02-01T10:48:02;101734.38;;;15.19;45.46
13050;BME280;6591;51.446;5.404;2023-02-01T10:51:12;101719.97;;;15.21;45.80
13050;BME280;6591;51.446;5.404;2023-02-01T10:54:17;101716.03;;;15.11;45.58
13050;BME280;6591;51.446;5.404;2023-02-01T10:56:49;101717.69;;;15.14;45.37
13050;BME280;6591;51.446;5.404;2023-02-01T10:59:24;101719.34;;;15.16;45.17
13050;BME280;6591;51.446;5.404;2023-02-01T11:02:00;101711.03;;;15.22;45.48
13050;BME280;6591;51.446;5.404;2023-02-01T11:04:34;101716.03;;;15.28;45.54
13050;BME280;6591;51.446;5.404;2023-02-01T11:07:23;101714.22;;;15.29;45.35
13050;BME280;6591;51.446;5.404;2023-02-01T11:09:54;101694.50;;;15.32;45.14
13050;BME280;6591;51.446;5.404;2023-02-01T11:12:32;101704.78;;;15.39;45.63
13050;BME280;6591;51.446;5.404;2023-02-01T11:15:22;101702.91;;;15.41;45.10
13050;BME280;6591;51.446;5.404;2023-02-01T11:17:51;101698.19;;;15.46;45.02
13050;BME280;6591;51.446;5.404;2023-02-01T11:20:40;101686.84;;;15.41;44.47
13050;BME280;6591;51.446;5.404;2023-02-01T11:23:19;101674.25;;;15.43;44.75
13050;BME280;6591;51.446;5.404;2023-02-01T11:28:24;101675.28;;;15.41;44.49
13050;BME280;6591;51.446;5.404;2023-02-01T11:30:56;101677.16;;;15.39;44.55
13050;BME280;6591;51.446;5.404;2023-02-01T11:33:32;101668.84;;;15.27;44.10
13050;BME280;6591;51.446;5.404;2023-02-01T11:36:12;101676.75;;;15.29;44.37
13050;BME280;6591;51.446;5.404;2023-02-01T11:42:25;101683.28;;;15.23;44.22
13050;BME280;6591;51.446;5.404;2023-02-01T11:45:20;101666.06;;;15.29;44.77
13050;BME280;6591;51.446;5.404;2023-02-01T11:47:52;101694.06;;;15.39;44.65
13050;BME280;6591;51.446;5.404;2023-02-01T11:53:29;101666.53;;;15.37;43.94
13050;BME280;6591;51.446;5.404;2023-02-01T12:08:04;101664.75;;;15.38;44.13
13050;BME280;6591;51.446;5.404;2023-02-01T12:13:54;101632.78;;;15.35;44.26
13050;BME280;6591;51.446;5.404;2023-02-01T12:20:04;101647.00;;;15.35;44.08
13050;BME280;6591;51.446;5.404;2023-02-01T12:29:01;101658.22;;;15.26;43.66
13050;BME280;6591;51.446;5.404;2023-02-01T12:43:38;101642.94;;;15.28;44.33
13050;BME280;6591;51.446;5.404;2023-02-01T12:46:31;101648.69;;;15.20;44.29
13050;BME280;6591;51.446;5.404;2023-02-01T12:52:05;101648.19;;;15.30;44.31
13050;BME280;6591;51.446;5.404;2023-02-01T12:54:53;101660.81;;;15.27;43.90
13050;BME280;6591;51.446;5.404;2023-02-01T12:57:32;101650.81;;;15.31;43.95
13050;BME280;6591;51.446;5.404;2023-02-01T13:06:35;101640.78;;;15.35;43.99
13050;BME280;6591;51.446;5.404;2023-02-01T13:09:22;101630.03;;;15.36;44.17
13050;BME280;6591;51.446;5.404;2023-02-01T13:11:57;101646.69;;;15.41;44.50
13050;BME280;6591;51.446;5.404;2023-02-01T13:17:24;101627.91;;;15.43;44.20
13050;BME280;6591;51.446;5.404;2023-02-01T13:22:37;101624.78;;;15.50;44.18
13050;BME280;6591;51.446;5.404;2023-02-01T13:25:39;101602.50;;;15.50;43.80
13050;BME280;6591;51.446;5.404;2023-02-01T13:28:24;101640.63;;;15.55;44.00
13050;BME280;6591;51.446;5.404;2023-02-01T13:31:27;101632.59;;;15.55;43.86
13050;BME280;6591;51.446;5.404;2023-02-01T13:38:04;101635.28;;;15.55;44.14
13050;BME280;6591;51.446;5.404;2023-02-01T13:40:52;101630.91;;;15.54;44.15
13050;BME280;6591;51.446;5.404;2023-02-01T13:43:29;101635.91;;;15.60;43.86
13050;BME280;6591;51.446;5.404;2023-02-01T13:46:06;101655.38;;;15.63;43.96
13050;BME280;6591;51.446;5.404;2023-02-01T13:48:45;101638.97;;;15.70;43.85
13050;BME280;6591;51.446;5.404;2023-02-01T13:51:14;101638.81;;;15.73;43.90
13050;BME280;6591;51.446;5.404;2023-02-01T13:53:48;101630.69;;;15.74;43.96
13050;BME280;6591;51.446;5.404;2023-02-01T13:56:22;101644.69;;;15.79;43.80
13050;BME280;6591;51.446;5.404;2023-02-01T13:58:51;101642.09;;;15.78;43.38
13050;BME280;6591;51.446;5.404;2023-02-01T14:04:03;101647.69;;;15.73;43.71
13050;BME280;6591;51.446;5.404;2023-02-01T14:11:51;101644.34;;;15.70;43.64
13050;BME280;6591;51.446;5.404;2023-02-01T14:19:29;101660.47;;;15.68;44.09
13050;BME280;6591;51.446;5.404;2023-02-01T14:24:54;101662.59;;;15.61;44.00
13050;BME280;6591;51.446;5.404;2023-02-01T14:27:27;101653.94;;;15.56;44.01
13050;BME280;6591;51.446;5.404;2023-02-01T14:30:05;101661.72;;;15.61;44.25
13050;BME280;6591;51.446;5.404;2023-02-01T14:32:40;101646.78;;;15.57;43.52
13050;BME280;6591;51.446;5.404;2023-02-01T14:35:20;101669.00;;;15.59;43.98
13050;BME280;6591;51.446;5.404;2023-02-01T14:37:59;101653.19;;;15.54;44.14
13050;BME280;6591;51.446;5.404;2023-02-01T14:40:28;101655.88;;;15.54;43.78
13050;BME280;6591;51.446;5.404;2023-02-01T14:42:56;101655.06;;;15.52;44.17
13050;BME280;6591;51.446;5.404;2023-02-01T14:50:36;101661.56;;;15.47;43.93
13050;BME280;6591;51.446;5.404;2023-02-01T14:58:49;101649.13;;;15.46;44.25
13050;BME280;6591;51.446;5.404;2023-02-01T15:01:50;101668.19;;;15.40;44.79
13050;BME280;6591;51.446;5.404;2023-02-01T15:04:19;101661.81;;;15.42;44.58
13050;BME280;6591;51.446;5.404;2023-02-01T15:06:55;101668.19;;;15.40;44.38
13050;BME280;6591;51.446;5.404;2023-02-01T15:09:32;101673.53;;;15.40;44.52
13050;BME280;6591;51.446;5.404;2023-02-01T15:14:45;101659.38;;;15.38;44.57
13050;BME280;6591;51.446;5.404;2023-02-01T15:22:59;101674.88;;;15.31;44.60
13050;BME280;6591;51.446;5.404;2023-02-01T15:25:33;101669.72;;;15.28;44.53
13050;BME280;6591;51.446;5.404;2023-02-01T15:28:02;101674.97;;;15.30;44.83
13050;BME280;6591;51.446;5.404;2023-02-01T15:30:33;101682.97;;;15.30;44.71
13050;BME280;6591;51.446;5.404;2023-02-01T15:33:16;101682.97;;;15.30;44.71
13050;BME280;6591;51.446;5.404;2023-02-01T15:35:48;101687.22;;;15.34;44.73
13050;BME280;6591;51.446;5.404;2023-02-01T15:43:32;101691.63;;;15.35;44.81
13050;BME280;6591;51.446;5.404;2023-02-01T15:46:03;101691.63;;;15.35;44.93
13050;BME280;6591;51.446;5.404;2023-02-01T15:48:41;101683.72;;;15.33;45.03
13050;BME280;6591;51.446;5.404;2023-02-01T15:51:30;101685.53;;;15.33;45.12
13050;BME280;6591;51.446;5.404;2023-02-01T15:54:06;101681.88;;;15.34;44.91
13050;BME280;6591;51.446;5.404;2023-02-01T15:56:41;101684.56;;;15.34;45.20
13050;BME280;6591;51.446;5.404;2023-02-01T15:59:17;101688.19;;;15.33;45.24
13050;BME280;6591;51.446;5.404;2023-02-01T16:01:46;101683.84;;;15.30;45.61
13050;BME280;6591;51.446;5.404;2023-02-01T16:04:24;101677.81;;;15.26;45.71